createdAt,value
2022-09-04T00:00:15.261Z,101287.41
2022-09-04T00:03:07.096Z,101281.19
2022-09-04T00:05:47.637Z,101281.25
2022-09-04T00:08:33.792Z,101284.72
2022-09-04T00:11:22.999Z,101282.38
2022-09-04T00:14:20.247Z,101287.22
2022-09-04T00:17:04.018Z,101279.53
2022-09-04T00:19:43.416Z,101280.91
2022-09-04T00:22:52.821Z,101277.38
2022-09-04T00:25:38.738Z,101277.41
2022-09-04T00:28:25.359Z,101277.75
2022-09-04T00:31:13.509Z,101284.38
2022-09-04T00:34:13.025Z,101280.53
2022-09-04T00:36:49.512Z,101280.53
2022-09-04T00:39:39.603Z,101288.00
2022-09-04T00:42:44.709Z,101290.50
2022-09-04T00:45:49.626Z,101304.63
2022-09-04T00:48:48.376Z,101293.88
2022-09-04T00:51:37.381Z,101304.69
2022-09-04T00:54:11.648Z,101310.56
2022-09-04T00:56:59.383Z,101300.19
2022-09-04T00:59:51.750Z,101307.41
2022-09-04T01:02:51.717Z,101306.63
2022-09-04T01:05:46.574Z,101316.78
2022-09-04T01:08:22.948Z,101311.22
2022-09-04T01:11:09.707Z,101316.69
2022-09-04T01:13:51.438Z,101318.88
2022-09-04T01:16:29.809Z,101319.47
2022-09-04T01:19:15.923Z,101319.19
2022-09-04T01:22:03.083Z,101325.09
2022-09-04T01:24:49.509Z,101335.09
2022-09-04T01:27:32.573Z,101341.00
2022-09-04T01:30:13.307Z,101345.03
2022-09-04T01:32:43.843Z,101350.28
2022-09-04T01:35:22.497Z,101348.66
2022-09-04T01:38:02.021Z,101351.94
2022-09-04T01:40:43.417Z,101343.69
2022-09-04T01:43:14.327Z,101346.09
2022-09-04T01:45:56.925Z,101346.53
2022-09-04T01:48:35.457Z,101341.53
2022-09-04T01:51:09.724Z,101348.34
2022-09-04T01:53:42.276Z,101350.81
2022-09-04T01:56:28.709Z,101344.97
2022-09-04T01:59:01.241Z,101339.97
2022-09-04T02:01:52.461Z,101337.44
2022-09-04T02:04:44.780Z,101329.91
2022-09-04T02:07:33.000Z,101334.53
2022-09-04T02:10:22.470Z,101335.88
2022-09-04T02:13:09.415Z,101330.19
2022-09-04T02:15:53.632Z,101334.22
2022-09-04T02:18:36.228Z,101343.97
2022-09-04T02:21:12.596Z,101340.53
2022-09-04T02:23:43.766Z,101337.44
2022-09-04T02:26:19.984Z,101334.56
2022-09-04T02:29:01.100Z,101331.19
2022-09-04T02:31:54.870Z,101324.47
2022-09-04T02:35:01.441Z,101331.63
2022-09-04T02:37:42.418Z,101329.84
2022-09-04T02:40:31.010Z,101326.97
2022-09-04T02:43:26.065Z,101324.78
2022-09-04T02:46:17.211Z,101319.84
2022-09-04T02:48:57.672Z,101321.72
2022-09-04T02:51:46.721Z,101317.56
2022-09-04T02:54:44.701Z,101321.06
2022-09-04T02:57:28.160Z,101319.81
2022-09-04T03:00:06.573Z,101315.41
2022-09-04T03:02:49.050Z,101322.59
2022-09-04T03:05:42.148Z,101311.91
2022-09-04T03:08:19.955Z,101308.47
2022-09-04T03:10:51.279Z,101313.31
2022-09-04T03:13:18.770Z,101317.00
2022-09-04T03:15:58.265Z,101327.13
2022-09-04T03:18:37.865Z,101321.06
2022-09-04T03:21:14.661Z,101318.84
2022-09-04T03:23:54.128Z,101318.91
2022-09-04T03:26:36.145Z,101330.94
2022-09-04T03:29:03.545Z,101332.00
2022-09-04T03:31:36.972Z,101337.47
2022-09-04T03:34:18.992Z,101339.22
2022-09-04T03:36:52.127Z,101336.72
2022-09-04T03:39:49.419Z,101333.81
2022-09-04T03:42:32.236Z,101335.03
2022-09-04T03:45:21.332Z,101332.38
2022-09-04T03:48:04.019Z,101344.31
2022-09-04T03:50:53.265Z,101332.59
2022-09-04T03:53:39.054Z,101334.09
2022-09-04T03:56:12.743Z,101331.94
2022-09-04T03:58:52.504Z,101334.63
2022-09-04T04:01:29.034Z,101348.72
2022-09-04T04:03:59.695Z,101339.75
2022-09-04T04:06:29.987Z,101347.84
2022-09-04T04:09:40.133Z,101348.50
2022-09-04T04:12:27.498Z,101349.19
2022-09-04T04:15:20.435Z,101356.16
2022-09-04T04:18:13.380Z,101360.25
2022-09-04T04:21:01.564Z,101364.97
2022-09-04T04:23:58.038Z,101377.94
2022-09-04T04:26:43.877Z,101380.81
2022-09-04T04:29:39.731Z,101386.06
2022-09-04T04:32:28.492Z,101392.06
2022-09-04T04:35:11.103Z,101396.97
2022-09-04T04:38:00.235Z,101408.03
2022-09-04T04:40:47.872Z,101413.66
2022-09-04T04:43:30.978Z,101416.16
2022-09-04T04:46:26.325Z,101409.19
2022-09-04T04:49:04.455Z,101413.59
2022-09-04T04:52:05.274Z,101419.78
2022-09-04T04:54:51.468Z,101424.50
2022-09-04T04:57:32.109Z,101431.53
2022-09-04T05:00:03.789Z,101431.53
2022-09-04T05:03:01.316Z,101431.66
2022-09-04T05:05:50.704Z,101434.19
2022-09-04T05:08:39.144Z,101441.88
2022-09-04T05:11:16.945Z,101438.53
2022-09-04T05:14:00.709Z,101444.50
2022-09-04T05:17:05.686Z,101446.91
2022-09-04T05:19:58.699Z,101451.91
2022-09-04T05:22:36.610Z,101451.84
2022-09-04T05:25:46.560Z,101447.63
2022-09-04T05:28:23.247Z,101443.88
2022-09-04T05:31:30.428Z,101449.00
2022-09-04T05:34:08.608Z,101455.78
2022-09-04T05:37:03.567Z,101451.97
2022-09-04T05:40:15.368Z,101461.53
2022-09-04T05:42:58.018Z,101462.06
2022-09-04T05:45:58.146Z,101454.09
2022-09-04T05:48:51.510Z,101464.16
2022-09-04T05:51:31.120Z,101461.09
2022-09-04T05:54:23.553Z,101472.25
2022-09-04T05:57:30.268Z,101481.66
2022-09-04T06:00:21.057Z,101470.41
2022-09-04T06:03:10.362Z,101477.88
2022-09-04T06:05:56.908Z,101472.94
2022-09-04T06:08:42.463Z,101483.31
2022-09-04T06:11:28.621Z,101475.50
2022-09-04T06:14:22.115Z,101480.44
2022-09-04T06:17:06.506Z,101479.03
2022-09-04T06:19:52.620Z,101467.16
2022-09-04T06:22:48.524Z,101474.06
2022-09-04T06:25:51.151Z,101486.03
2022-09-04T06:28:55.763Z,101489.28
2022-09-04T06:31:23.205Z,101483.50
2022-09-04T06:34:28.178Z,101484.13
2022-09-04T06:37:33.254Z,101483.13
2022-09-04T06:40:23.829Z,101481.06
2022-09-04T06:43:15.240Z,101491.41
2022-09-04T06:46:12.764Z,101496.53
2022-09-04T06:48:46.779Z,101495.84
2022-09-04T06:51:32.469Z,101504.06
2022-09-04T06:54:07.569Z,101502.06
2022-09-04T06:56:38.298Z,101511.56
2022-09-04T06:59:05.670Z,101511.03
2022-09-04T07:01:44.650Z,101505.81
2022-09-04T07:04:32.364Z,101509.88
2022-09-04T07:07:32.327Z,101510.75
2022-09-04T07:10:14.915Z,101511.31
2022-09-04T07:13:39.147Z,101513.44
2022-09-04T07:16:34.160Z,101515.25
2022-09-04T07:19:10.564Z,101516.28
2022-09-04T07:21:56.729Z,101510.44
2022-09-04T07:24:57.007Z,101501.34
2022-09-04T07:27:39.058Z,101510.09
2022-09-04T07:30:16.159Z,101503.66
2022-09-04T07:33:03.824Z,101502.56
2022-09-04T07:36:18.938Z,101513.63
2022-09-04T07:39:01.795Z,101504.63
2022-09-04T07:41:49.301Z,101514.63
2022-09-04T07:44:30.251Z,101519.53
2022-09-04T07:47:19.641Z,101524.22
2022-09-04T07:49:50.063Z,101519.19
2022-09-04T07:52:32.804Z,101526.59
2022-09-04T07:55:18.887Z,101524.19
2022-09-04T07:58:07.916Z,101518.13
2022-09-04T08:01:03.364Z,101539.94
2022-09-04T08:03:54.552Z,101540.81
2022-09-04T08:06:39.074Z,101546.53
2022-09-04T08:09:15.659Z,101551.00
2022-09-04T08:12:08.397Z,101541.38
2022-09-04T08:14:38.951Z,101545.50
2022-09-04T08:17:43.136Z,101558.06
2022-09-04T08:20:22.663Z,101563.16
2022-09-04T08:23:24.561Z,101567.47
2022-09-04T08:26:14.503Z,101566.94
2022-09-04T08:29:03.323Z,101565.56
2022-09-04T08:31:54.027Z,101563.91
2022-09-04T08:34:27.453Z,101559.00
2022-09-04T08:37:09.768Z,101567.50
2022-09-04T08:39:46.468Z,101566.97
2022-09-04T08:42:45.955Z,101565.66
2022-09-04T08:45:22.320Z,101568.06
2022-09-04T08:48:22.311Z,101569.22
2022-09-04T08:50:51.675Z,101577.25
2022-09-04T08:53:48.521Z,101583.41
2022-09-04T08:56:20.537Z,101578.41
2022-09-04T08:59:33.304Z,101577.31
2022-09-04T09:02:28.701Z,101578.19
2022-09-04T09:05:33.897Z,101582.63
2022-09-04T09:08:46.264Z,101586.50
2022-09-04T09:11:19.724Z,101587.91
2022-09-04T09:14:03.998Z,101584.28
2022-09-04T09:17:12.546Z,101584.56
2022-09-04T09:19:52.074Z,101584.22
2022-09-04T09:22:57.622Z,101585.84
2022-09-04T09:25:43.952Z,101579.16
2022-09-04T09:28:29.911Z,101586.16
2022-09-04T09:31:03.386Z,101585.94
2022-09-04T09:33:37.662Z,101589.53
2022-09-04T09:36:29.964Z,101587.38
2022-09-04T09:39:31.453Z,101581.69
2022-09-04T09:42:13.941Z,101593.25
2022-09-04T09:45:24.885Z,101583.09
2022-09-04T09:48:11.816Z,101583.59
2022-09-04T09:50:59.615Z,101584.13
2022-09-04T09:53:47.529Z,101575.94
2022-09-04T09:56:21.372Z,101580.72
2022-09-04T09:59:10.343Z,101579.06
2022-09-04T10:02:13.877Z,101575.59
2022-09-04T10:04:47.187Z,101575.81
2022-09-04T10:07:49.705Z,101574.13
2022-09-04T10:11:08.420Z,101556.97
2022-09-04T10:14:04.905Z,101561.97
2022-09-04T10:17:00.628Z,101558.22
2022-09-04T10:19:39.335Z,101553.06
2022-09-04T10:22:54.477Z,101554.28
2022-09-04T10:25:28.614Z,101550.38
2022-09-04T10:28:14.120Z,101552.78
2022-09-04T10:31:01.986Z,101546.06
2022-09-04T10:34:08.212Z,101547.75
2022-09-04T10:37:06.025Z,101539.03
2022-09-04T10:40:06.552Z,101545.66
2022-09-04T10:42:52.762Z,101543.09
2022-09-04T10:45:58.964Z,101547.97
2022-09-04T10:48:28.677Z,101546.94
2022-09-04T10:51:05.719Z,101547.28
2022-09-04T10:53:53.170Z,101551.69
2022-09-04T10:56:44.029Z,101550.97
2022-09-04T10:59:31.073Z,101550.88
2022-09-04T11:02:44.128Z,101550.63
2022-09-04T11:05:36.598Z,101550.69
2022-09-04T11:08:52.716Z,101554.94
2022-09-04T11:11:23.159Z,101554.44
2022-09-04T11:14:19.067Z,101549.97
2022-09-04T11:16:58.786Z,101543.69
2022-09-04T11:19:35.290Z,101540.03
2022-09-04T11:22:24.046Z,101544.72
2022-09-04T11:24:55.745Z,101539.72
2022-09-04T11:27:49.309Z,101539.13
2022-09-04T11:30:50.092Z,101537.47
2022-09-04T11:33:49.808Z,101541.69
2022-09-04T11:36:35.907Z,101539.47
2022-09-04T11:39:21.751Z,101540.41
2022-09-04T11:42:03.870Z,101541.38
2022-09-04T11:45:00.616Z,101536.84
2022-09-04T11:47:34.998Z,101528.06
2022-09-04T11:50:20.446Z,101526.31
2022-09-04T11:52:58.026Z,101522.97
2022-09-04T11:55:44.131Z,101521.50
2022-09-04T11:58:29.241Z,101521.47
2022-09-04T12:01:25.595Z,101524.44
2022-09-04T12:03:59.239Z,101526.00
2022-09-04T12:06:45.659Z,101516.78
2022-09-04T12:09:40.441Z,101510.16
2022-09-04T12:12:57.434Z,101512.03
2022-09-04T12:15:38.509Z,101516.00
2022-09-04T12:18:24.809Z,101512.25
2022-09-04T12:21:20.273Z,101508.31
2022-09-04T12:24:06.139Z,101516.94
2022-09-04T12:26:51.578Z,101501.84
2022-09-04T12:29:35.547Z,101511.34
2022-09-04T12:32:22.056Z,101512.13
2022-09-04T12:35:06.679Z,101508.31
2022-09-04T12:38:01.890Z,101502.28
2022-09-04T12:40:32.808Z,101500.66
2022-09-04T12:43:16.467Z,101489.34
2022-09-04T12:46:12.737Z,101501.53
2022-09-04T12:49:02.217Z,101497.25
2022-09-04T12:51:51.332Z,101498.72
2022-09-04T12:54:55.469Z,101497.19
2022-09-04T12:57:38.388Z,101489.22
2022-09-04T13:00:12.696Z,101489.78
2022-09-04T13:03:04.915Z,101487.34
2022-09-04T13:05:46.797Z,101484.63
2022-09-04T13:08:48.535Z,101491.88
2022-09-04T13:11:37.156Z,101501.38
2022-09-04T13:14:20.334Z,101493.84
2022-09-04T13:17:15.612Z,101487.34
2022-09-04T13:20:06.028Z,101480.91
2022-09-04T13:22:57.795Z,101484.00
2022-09-04T13:25:43.618Z,101488.81
2022-09-04T13:28:48.205Z,101488.66
2022-09-04T13:31:19.225Z,101488.94
2022-09-04T13:34:02.940Z,101478.22
2022-09-04T13:37:04.392Z,101484.81
2022-09-04T13:39:44.444Z,101487.19
2022-09-04T13:42:33.953Z,101487.06
2022-09-04T13:45:19.435Z,101476.47
2022-09-04T13:48:08.811Z,101479.97
2022-09-04T13:50:38.652Z,101478.28
2022-09-04T13:53:37.371Z,101477.38
2022-09-04T13:56:14.377Z,101471.34
2022-09-04T13:58:51.474Z,101467.44
2022-09-04T14:01:25.616Z,101473.75
2022-09-04T14:04:01.455Z,101465.13
2022-09-04T14:06:32.292Z,101470.59
2022-09-04T14:09:05.639Z,101461.63
2022-09-04T14:12:07.218Z,101464.41
2022-09-04T14:14:37.542Z,101473.16
2022-09-04T14:17:07.212Z,101468.91
2022-09-04T14:19:35.802Z,101464.59
2022-09-04T14:22:15.080Z,101459.16
2022-09-04T14:25:26.560Z,101453.91
2022-09-04T14:28:11.314Z,101454.50
2022-09-04T14:31:10.414Z,101461.53
2022-09-04T14:33:51.274Z,101458.84
2022-09-04T14:36:27.842Z,101465.84
2022-09-04T14:39:13.671Z,101466.50
2022-09-04T14:41:54.574Z,101462.34
2022-09-04T14:44:39.506Z,101464.50
2022-09-04T14:47:16.650Z,101462.09
2022-09-04T14:49:51.224Z,101452.09
2022-09-04T14:52:35.518Z,101463.03
2022-09-04T14:55:15.287Z,101458.66
2022-09-04T14:57:50.490Z,101459.31
2022-09-04T15:00:20.730Z,101460.50
2022-09-04T15:02:57.135Z,101459.78
2022-09-04T15:05:48.566Z,101455.75
2022-09-04T15:08:40.186Z,101458.66
2022-09-04T15:11:13.270Z,101459.81
2022-09-04T15:13:46.794Z,101455.44
2022-09-04T15:16:21.629Z,101447.78
2022-09-04T15:19:08.890Z,101445.19
2022-09-04T15:21:50.494Z,101454.16
2022-09-04T15:24:26.532Z,101452.41
2022-09-04T15:27:10.781Z,101456.28
2022-09-04T15:29:38.452Z,101451.59
2022-09-04T15:32:14.245Z,101447.63
2022-09-04T15:34:42.385Z,101441.00
2022-09-04T15:37:25.859Z,101437.88
2022-09-04T15:40:13.945Z,101443.06
2022-09-04T15:42:46.799Z,101440.44
2022-09-04T15:45:24.639Z,101427.03
2022-09-04T15:48:28.012Z,101430.28
2022-09-04T15:51:22.636Z,101432.69
2022-09-04T15:54:21.759Z,101444.03
2022-09-04T15:56:52.147Z,101433.44
2022-09-04T15:59:47.562Z,101438.44
2022-09-04T16:02:36.242Z,101437.63
2022-09-04T16:05:21.774Z,101443.94
2022-09-04T16:08:20.567Z,101438.91
2022-09-04T16:11:11.747Z,101439.59
2022-09-04T16:13:58.681Z,101440.34
2022-09-04T16:16:35.396Z,101431.78
2022-09-04T16:19:15.248Z,101438.41
2022-09-04T16:22:01.762Z,101435.66
2022-09-04T16:24:47.041Z,101439.34
2022-09-04T16:27:19.995Z,101441.06
2022-09-04T16:30:01.558Z,101443.44
2022-09-04T16:32:34.171Z,101441.13
2022-09-04T16:35:12.495Z,101441.28
2022-09-04T16:37:42.835Z,101437.94
2022-09-04T16:40:34.441Z,101435.94
2022-09-04T16:43:16.445Z,101435.13
2022-09-04T16:45:52.321Z,101437.31
2022-09-04T16:48:35.027Z,101431.59
2022-09-04T16:51:39.909Z,101434.63
2022-09-04T16:54:33.024Z,101440.53
2022-09-04T16:57:12.028Z,101441.28
2022-09-04T17:00:00.648Z,101435.50
2022-09-04T17:02:44.914Z,101436.56
2022-09-04T17:05:35.110Z,101445.56
2022-09-04T17:08:10.298Z,101444.53
2022-09-04T17:10:46.503Z,101437.41
2022-09-04T17:13:38.028Z,101442.91
2022-09-04T17:16:19.858Z,101441.22
2022-09-04T17:19:14.239Z,101436.91
2022-09-04T17:28:54.335Z,101428.78
2022-09-04T17:29:15.035Z,101437.66
2022-09-04T17:29:34.970Z,101432.25
2022-09-04T17:32:30.581Z,101437.19
2022-09-04T17:40:37.721Z,101446.53
2022-09-04T17:40:39.313Z,101438.63
2022-09-04T17:41:55.891Z,101449.16
2022-09-04T17:44:55.414Z,101444.00
2022-09-04T17:47:33.715Z,101441.88
2022-09-04T17:50:02.245Z,101441.75
2022-09-04T17:52:38.043Z,101439.31
2022-09-04T17:55:11.305Z,101450.50
2022-09-04T17:57:57.563Z,101455.81
2022-09-04T18:00:33.499Z,101453.53
2022-09-04T18:03:23.562Z,101461.91
2022-09-04T18:06:03.078Z,101459.97
2022-09-04T18:08:48.375Z,101468.66
2022-09-04T18:11:28.998Z,101470.88
2022-09-04T18:14:11.209Z,101478.03
2022-09-04T18:17:13.070Z,101492.06
2022-09-04T18:19:43.522Z,101492.13
2022-09-04T18:22:26.953Z,101500.69
2022-09-04T18:25:17.285Z,101498.56
2022-09-04T18:28:12.089Z,101507.91
2022-09-04T18:37:11.022Z,101505.25
2022-09-04T18:37:19.366Z,101517.28
2022-09-04T18:37:46.301Z,101526.91
2022-09-04T18:40:43.704Z,101521.13
2022-09-04T18:50:25.473Z,101527.91
2022-09-04T18:50:32.731Z,101540.78
2022-09-04T18:50:33.995Z,101541.34
2022-09-04T18:52:06.241Z,101545.47
2022-09-04T18:54:48.826Z,101543.50
2022-09-04T18:57:48.105Z,101549.06
2022-09-04T19:00:24.213Z,101553.28
2022-09-04T19:03:15.912Z,101552.44
2022-09-04T19:05:46.825Z,101559.03
2022-09-04T19:08:21.861Z,101553.97
2022-09-04T19:11:01.257Z,101568.53
2022-09-04T19:13:54.008Z,101573.00
2022-09-04T19:16:36.678Z,101564.66
2022-09-04T19:19:23.505Z,101568.06
2022-09-04T19:22:12.391Z,101572.22
2022-09-04T19:25:01.265Z,101582.47
2022-09-04T19:27:35.952Z,101580.34
2022-09-04T19:30:24.008Z,101596.31
2022-09-04T19:33:23.542Z,101595.16
2022-09-04T19:36:17.347Z,101594.63
2022-09-04T19:46:02.918Z,101599.94
2022-09-04T19:46:08.897Z,101595.72
2022-09-04T19:46:13.318Z,101594.34
2022-09-04T19:47:56.318Z,101601.88
2022-09-04T19:53:22.876Z,101607.16
2022-09-04T19:53:42.636Z,101609.41
2022-09-04T19:57:32.626Z,101611.63
2022-09-04T19:59:47.831Z,101612.72
2022-09-04T20:02:44.308Z,101617.47
2022-09-04T20:05:26.799Z,101614.88
2022-09-04T20:08:18.231Z,101609.56
2022-09-04T20:10:47.448Z,101613.44
2022-09-04T20:13:29.833Z,101615.88
2022-09-04T20:16:28.915Z,101609.16
2022-09-04T20:19:28.095Z,101602.09
2022-09-04T20:22:16.791Z,101597.88
2022-09-04T20:25:30.110Z,101599.72
2022-09-04T20:28:14.262Z,101595.19
2022-09-04T20:30:47.889Z,101580.31
2022-09-04T20:33:24.319Z,101574.47
2022-09-04T20:36:04.694Z,101583.69
2022-09-04T20:38:41.050Z,101591.66
2022-09-04T20:41:31.937Z,101599.94
2022-09-04T20:44:23.893Z,101603.78
2022-09-04T20:47:11.531Z,101605.66
2022-09-04T20:53:05.873Z,101613.06
2022-09-04T20:54:01.403Z,101623.97
2022-09-04T20:59:48.397Z,101628.41
2022-09-04T21:03:07.690Z,101632.06
2022-09-04T21:03:28.215Z,101630.00
2022-09-04T21:05:57.009Z,101628.00
2022-09-04T21:08:53.651Z,101629.78
2022-09-04T21:11:42.469Z,101626.38
2022-09-04T21:14:17.107Z,101639.31
2022-09-04T21:17:35.204Z,101646.41
2022-09-04T21:20:11.349Z,101651.16
2022-09-04T21:22:52.693Z,101665.25
2022-09-04T21:25:45.985Z,101671.81
2022-09-04T21:28:13.436Z,101682.00
2022-09-04T21:30:49.931Z,101679.72
2022-09-04T21:33:39.873Z,101679.81
2022-09-04T21:36:30.640Z,101680.84
2022-09-04T21:39:07.119Z,101696.00
2022-09-04T21:41:43.261Z,101696.16
2022-09-04T21:44:34.595Z,101700.72
2022-09-04T21:47:28.321Z,101699.50
2022-09-04T21:50:35.543Z,101701.78
2022-09-04T21:53:18.927Z,101711.97
2022-09-04T22:00:08.003Z,101713.91
2022-09-04T22:02:40.621Z,101714.94
2022-09-04T22:02:54.394Z,101718.25
2022-09-04T22:05:46.761Z,101722.09
2022-09-04T22:13:18.857Z,101726.38
2022-09-04T22:13:39.073Z,101731.41
2022-09-04T22:14:25.877Z,101729.72
2022-09-04T22:17:22.501Z,101730.97
2022-09-04T22:19:58.899Z,101739.25
2022-09-04T22:22:57.287Z,101739.25
2022-09-04T22:26:23.350Z,101738.47
